sensor_id;sensor_type;location;lat;lon;timestamp;temperature;humidity
51579;DHT22;47998;53.242;6.386;2023-05-14T00:01:27;10.30;99.90
51579;DHT22;47998;53.242;6.386;2023-05-14T00:03:53;10.30;99.90
51579;DHT22;47998;53.242;6.386;2023-05-14T00:06:18;10.30;99.90
51579;DHT22;47998;53.242;6.386;2023-05-14T00:08:44;10.30;99.90
51579;DHT22;47998;53.242;6.386;2023-05-14T00:11:10;10.30;99.90
51579;DHT22;47998;53.242;6.386;2023-05-14T00:13:36;10.30;99.90
51579;DHT22;47998;53.242;6.386;2023-05-14T00:16:02;10.20;99.90
51579;DHT22;47998;53.242;6.386;2023-05-14T00:18:27;10.20;99.90
51579;DHT22;47998;53.242;6.386;2023-05-14T00:20:53;10.20;99.90
51579;DHT22;47998;53.242;6.386;2023-05-14T00:23:20;10.10;99.90
51579;DHT22;47998;53.242;6.386;2023-05-14T00:25:46;10.10;99.90
51579;DHT22;47998;53.242;6.386;2023-05-14T00:28:11;10.10;99.90
51579;DHT22;47998;53.242;6.386;2023-05-14T00:30:37;10.00;99.90
51579;DHT22;47998;53.242;6.386;2023-05-14T00:33:04;10.00;99.90
51579;DHT22;47998;53.242;6.386;2023-05-14T00:35:30;10.00;99.90
51579;DHT22;47998;53.242;6.386;2023-05-14T00:37:56;9.90;99.90
51579;DHT22;47998;53.242;6.386;2023-05-14T00:40:25;9.90;99.90
51579;DHT22;47998;53.242;6.386;2023-05-14T00:42:53;9.90;99.90
51579;DHT22;47998;53.242;6.386;2023-05-14T00:45:19;9.90;99.90
51579;DHT22;47998;53.242;6.386;2023-05-14T00:47:45;9.80;99.90
51579;DHT22;47998;53.242;6.386;2023-05-14T00:50:11;9.90;99.90
51579;DHT22;47998;53.242;6.386;2023-05-14T00:52:38;9.90;99.90
51579;DHT22;47998;53.242;6.386;2023-05-14T00:55:05;9.90;99.90
51579;DHT22;47998;53.242;6.386;2023-05-14T00:57:34;9.90;99.90
51579;DHT22;47998;53.242;6.386;2023-05-14T01:00:01;9.90;99.90
51579;DHT22;47998;53.242;6.386;2023-05-14T01:02:28;10.00;99.90
51579;DHT22;47998;53.242;6.386;2023-05-14T01:04:53;10.00;99.90
51579;DHT22;47998;53.242;6.386;2023-05-14T01:08:08;10.00;99.90
51579;DHT22;47998;53.242;6.386;2023-05-14T01:10:27;10.00;99.90
51579;DHT22;47998;53.242;6.386;2023-05-14T01:13:03;10.00;99.90
51579;DHT22;47998;53.242;6.386;2023-05-14T01:15:33;9.90;99.90
51579;DHT22;47998;53.242;6.386;2023-05-14T01:20:31;9.90;99.90
51579;DHT22;47998;53.242;6.386;2023-05-14T01:22:56;9.90;99.90
51579;DHT22;47998;53.242;6.386;2023-05-14T01:25:22;9.80;99.90
51579;DHT22;47998;53.242;6.386;2023-05-14T01:28:02;9.80;99.90
51579;DHT22;47998;53.242;6.386;2023-05-14T01:30:34;9.80;99.90
51579;DHT22;47998;53.242;6.386;2023-05-14T01:33:05;9.70;99.90
51579;DHT22;47998;53.242;6.386;2023-05-14T01:35:31;9.70;99.90
51579;DHT22;47998;53.242;6.386;2023-05-14T01:38:00;9.60;99.90
51579;DHT22;47998;53.242;6.386;2023-05-14T01:40:26;9.60;99.90
51579;DHT22;47998;53.242;6.386;2023-05-14T01:42:53;9.50;99.90
51579;DHT22;47998;53.242;6.386;2023-05-14T01:45:20;9.50;99.90
51579;DHT22;47998;53.242;6.386;2023-05-14T01:47:46;9.50;99.90
51579;DHT22;47998;53.242;6.386;2023-05-14T01:50:12;9.50;99.90
51579;DHT22;47998;53.242;6.386;2023-05-14T01:52:37;9.40;99.90
51579;DHT22;47998;53.242;6.386;2023-05-14T01:55:03;9.40;99.90
51579;DHT22;47998;53.242;6.386;2023-05-14T01:57:30;9.40;99.90
51579;DHT22;47998;53.242;6.386;2023-05-14T01:59:55;9.40;99.90
51579;DHT22;47998;53.242;6.386;2023-05-14T02:02:21;9.40;99.90
51579;DHT22;47998;53.242;6.386;2023-05-14T02:04:47;9.50;99.90
51579;DHT22;47998;53.242;6.386;2023-05-14T02:07:13;9.50;99.90
51579;DHT22;47998;53.242;6.386;2023-05-14T02:09:39;9.60;99.90
51579;DHT22;47998;53.242;6.386;2023-05-14T02:12:08;9.60;99.90
51579;DHT22;47998;53.242;6.386;2023-05-14T02:14:35;9.70;99.90
51579;DHT22;47998;53.242;6.386;2023-05-14T02:17:01;9.70;99.90
51579;DHT22;47998;53.242;6.386;2023-05-14T02:19:28;9.80;99.90
51579;DHT22;47998;53.242;6.386;2023-05-14T02:21:54;9.80;99.90
51579;DHT22;47998;53.242;6.386;2023-05-14T02:24:20;9.80;99.90
51579;DHT22;47998;53.242;6.386;2023-05-14T02:26:46;9.90;99.90
51579;DHT22;47998;53.242;6.386;2023-05-14T02:29:11;9.90;99.90
51579;DHT22;47998;53.242;6.386;2023-05-14T02:31:37;9.90;99.90
51579;DHT22;47998;53.242;6.386;2023-05-14T02:34:04;9.90;99.90
51579;DHT22;47998;53.242;6.386;2023-05-14T02:36:31;9.90;99.90
51579;DHT22;47998;53.242;6.386;2023-05-14T02:38:58;10.00;99.90
51579;DHT22;47998;53.242;6.386;2023-05-14T02:41:24;9.90;99.90
51579;DHT22;47998;53.242;6.386;2023-05-14T02:43:50;9.90;99.90
51579;DHT22;47998;53.242;6.386;2023-05-14T02:46:16;9.90;99.90
51579;DHT22;47998;53.242;6.386;2023-05-14T02:48:42;9.90;99.90
51579;DHT22;47998;53.242;6.386;2023-05-14T02:51:07;9.90;99.90
51579;DHT22;47998;53.242;6.386;2023-05-14T02:53:33;9.90;99.90
51579;DHT22;47998;53.242;6.386;2023-05-14T02:55:59;9.90;99.90
51579;DHT22;47998;53.242;6.386;2023-05-14T02:58:25;9.90;99.90
51579;DHT22;47998;53.242;6.386;2023-05-14T03:00:51;9.90;99.90
51579;DHT22;47998;53.242;6.386;2023-05-14T03:03:18;9.80;99.90
51579;DHT22;47998;53.242;6.386;2023-05-14T03:05:43;9.80;99.90
51579;DHT22;47998;53.242;6.386;2023-05-14T03:08:09;9.80;99.90
51579;DHT22;47998;53.242;6.386;2023-05-14T03:10:35;9.80;99.90
51579;DHT22;47998;53.242;6.386;2023-05-14T03:13:01;9.80;99.90
51579;DHT22;47998;53.242;6.386;2023-05-14T03:15:27;9.80;99.90
51579;DHT22;47998;53.242;6.386;2023-05-14T03:17:52;9.80;99.90
51579;DHT22;47998;53.242;6.386;2023-05-14T03:20:18;9.70;99.90
51579;DHT22;47998;53.242;6.386;2023-05-14T03:22:45;9.70;99.90
51579;DHT22;47998;53.242;6.386;2023-05-14T03:25:10;9.60;99.90
51579;DHT22;47998;53.242;6.386;2023-05-14T03:27:36;9.60;99.90
51579;DHT22;47998;53.242;6.386;2023-05-14T03:30:02;9.50;99.90
51579;DHT22;47998;53.242;6.386;2023-05-14T03:32:28;9.50;99.90
51579;DHT22;47998;53.242;6.386;2023-05-14T03:34:54;9.40;99.90
51579;DHT22;47998;53.242;6.386;2023-05-14T03:37:20;9.50;99.90
51579;DHT22;47998;53.242;6.386;2023-05-14T03:39:46;9.50;99.90
51579;DHT22;47998;53.242;6.386;2023-05-14T03:42:12;9.50;99.90
51579;DHT22;47998;53.242;6.386;2023-05-14T03:44:37;9.40;99.90
51579;DHT22;47998;53.242;6.386;2023-05-14T03:47:03;9.40;99.90
51579;DHT22;47998;53.242;6.386;2023-05-14T03:49:29;9.30;99.90
51579;DHT22;47998;53.242;6.386;2023-05-14T03:51:55;9.20;99.90
51579;DHT22;47998;53.242;6.386;2023-05-14T03:54:22;9.20;99.90
51579;DHT22;47998;53.242;6.386;2023-05-14T03:56:48;9.20;99.90
51579;DHT22;47998;53.242;6.386;2023-05-14T03:59:13;9.20;99.90
51579;DHT22;47998;53.242;6.386;2023-05-14T04:01:39;9.30;99.90
51579;DHT22;47998;53.242;6.386;2023-05-14T04:04:05;9.30;99.90
51579;DHT22;47998;53.242;6.386;2023-05-14T04:06:32;9.40;99.90
51579;DHT22;47998;53.242;6.386;2023-05-14T04:08:57;9.50;99.90
51579;DHT22;47998;53.242;6.386;2023-05-14T04:11:23;9.50;99.90
51579;DHT22;47998;53.242;6.386;2023-05-14T04:13:49;9.60;99.90
51579;DHT22;47998;53.242;6.386;2023-05-14T04:16:15;9.60;99.90
51579;DHT22;47998;53.242;6.386;2023-05-14T04:18:40;9.70;99.90
51579;DHT22;47998;53.242;6.386;2023-05-14T04:21:06;9.70;99.90
51579;DHT22;47998;53.242;6.386;2023-05-14T04:23:32;9.70;99.90
51579;DHT22;47998;53.242;6.386;2023-05-14T04:25:58;9.70;99.90
51579;DHT22;47998;53.242;6.386;2023-05-14T04:28:24;9.80;99.90
51579;DHT22;47998;53.242;6.386;2023-05-14T04:30:50;9.80;99.90
51579;DHT22;47998;53.242;6.386;2023-05-14T04:33:16;9.90;99.90
51579;DHT22;47998;53.242;6.386;2023-05-14T04:35:43;9.90;99.90
51579;DHT22;47998;53.242;6.386;2023-05-14T04:38:09;10.00;99.90
51579;DHT22;47998;53.242;6.386;2023-05-14T04:40:35;10.10;99.90
51579;DHT22;47998;53.242;6.386;2023-05-14T04:43:02;10.20;99.90
51579;DHT22;47998;53.242;6.386;2023-05-14T04:45:27;10.30;99.90
51579;DHT22;47998;53.242;6.386;2023-05-14T04:47:53;10.40;99.90
51579;DHT22;47998;53.242;6.386;2023-05-14T04:50:19;10.50;99.90
51579;DHT22;47998;53.242;6.386;2023-05-14T04:52:45;10.60;99.90
51579;DHT22;47998;53.242;6.386;2023-05-14T04:55:10;10.70;99.90
51579;DHT22;47998;53.242;6.386;2023-05-14T04:57:36;10.80;99.90
51579;DHT22;47998;53.242;6.386;2023-05-14T05:00:02;10.90;99.90
51579;DHT22;47998;53.242;6.386;2023-05-14T05:02:30;11.00;99.90
51579;DHT22;47998;53.242;6.386;2023-05-14T05:04:56;11.10;99.90
51579;DHT22;47998;53.242;6.386;2023-05-14T05:07:22;11.20;99.90
51579;DHT22;47998;53.242;6.386;2023-05-14T05:09:47;11.30;99.90
51579;DHT22;47998;53.242;6.386;2023-05-14T05:12:13;11.30;99.90
51579;DHT22;47998;53.242;6.386;2023-05-14T05:14:39;11.40;99.90
51579;DHT22;47998;53.242;6.386;2023-05-14T05:17:04;11.40;99.90
51579;DHT22;47998;53.242;6.386;2023-05-14T05:19:30;11.40;99.90
51579;DHT22;47998;53.242;6.386;2023-05-14T05:21:56;11.50;99.90
51579;DHT22;47998;53.242;6.386;2023-05-14T05:24:22;11.50;99.90
51579;DHT22;47998;53.242;6.386;2023-05-14T05:26:47;11.50;99.90
51579;DHT22;47998;53.242;6.386;2023-05-14T05:29:14;11.60;99.90
51579;DHT22;47998;53.242;6.386;2023-05-14T05:31:40;11.70;99.90
51579;DHT22;47998;53.242;6.386;2023-05-14T05:34:06;11.70;99.90
51579;DHT22;47998;53.242;6.386;2023-05-14T05:36:32;11.80;99.90
51579;DHT22;47998;53.242;6.386;2023-05-14T05:38:57;11.90;99.90
51579;DHT22;47998;53.242;6.386;2023-05-14T05:41:23;12.00;99.90
51579;DHT22;47998;53.242;6.386;2023-05-14T05:43:49;12.10;99.90
51579;DHT22;47998;53.242;6.386;2023-05-14T05:46:15;12.30;99.90
51579;DHT22;47998;53.242;6.386;2023-05-14T05:48:40;12.60;99.90
51579;DHT22;47998;53.242;6.386;2023-05-14T05:51:06;12.70;99.90
51579;DHT22;47998;53.242;6.386;2023-05-14T05:53:32;12.80;99.90
51579;DHT22;47998;53.242;6.386;2023-05-14T05:55:57;12.90;99.90
51579;DHT22;47998;53.242;6.386;2023-05-14T05:58:23;13.10;99.90
51579;DHT22;47998;53.242;6.386;2023-05-14T06:00:49;13.10;99.90
51579;DHT22;47998;53.242;6.386;2023-05-14T06:03:14;13.20;99.90
51579;DHT22;47998;53.242;6.386;2023-05-14T06:05:40;13.60;99.90
51579;DHT22;47998;53.242;6.386;2023-05-14T06:08:06;13.70;99.90
51579;DHT22;47998;53.242;6.386;2023-05-14T06:10:32;14.00;99.90
51579;DHT22;47998;53.242;6.386;2023-05-14T06:12:58;14.20;99.90
51579;DHT22;47998;53.242;6.386;2023-05-14T06:15:24;14.50;99.90
51579;DHT22;47998;53.242;6.386;2023-05-14T06:17:50;14.70;99.90
51579;DHT22;47998;53.242;6.386;2023-05-14T06:20:16;14.80;99.90
51579;DHT22;47998;53.242;6.386;2023-05-14T06:22:41;14.80;99.90
51579;DHT22;47998;53.242;6.386;2023-05-14T06:25:07;14.70;99.90
51579;DHT22;47998;53.242;6.386;2023-05-14T06:27:33;14.70;99.90
51579;DHT22;47998;53.242;6.386;2023-05-14T06:29:59;14.70;99.90
51579;DHT22;47998;53.242;6.386;2023-05-14T06:32:24;14.80;99.90
51579;DHT22;47998;53.242;6.386;2023-05-14T06:34:50;14.80;99.90
51579;DHT22;47998;53.242;6.386;2023-05-14T06:37:16;14.70;99.90
51579;DHT22;47998;53.242;6.386;2023-05-14T06:39:41;14.60;99.90
51579;DHT22;47998;53.242;6.386;2023-05-14T06:42:14;14.50;99.90
51579;DHT22;47998;53.242;6.386;2023-05-14T06:44:40;14.40;99.90
51579;DHT22;47998;53.242;6.386;2023-05-14T06:47:06;14.30;99.90
51579;DHT22;47998;53.242;6.386;2023-05-14T06:49:33;14.30;99.90
51579;DHT22;47998;53.242;6.386;2023-05-14T06:51:59;14.30;99.90
51579;DHT22;47998;53.242;6.386;2023-05-14T06:54:25;14.30;99.90
51579;DHT22;47998;53.242;6.386;2023-05-14T06:56:51;14.40;99.90
51579;DHT22;47998;53.242;6.386;2023-05-14T06:59:17;14.50;99.90
51579;DHT22;47998;53.242;6.386;2023-05-14T07:01:42;14.70;99.90
51579;DHT22;47998;53.242;6.386;2023-05-14T07:04:08;14.80;99.90
51579;DHT22;47998;53.242;6.386;2023-05-14T07:06:34;15.00;99.90
51579;DHT22;47998;53.242;6.386;2023-05-14T07:09:00;15.20;99.90
51579;DHT22;47998;53.242;6.386;2023-05-14T07:11:26;15.40;99.90
51579;DHT22;47998;53.242;6.386;2023-05-14T07:13:52;15.70;99.90
51579;DHT22;47998;53.242;6.386;2023-05-14T07:16:18;15.90;99.90
51579;DHT22;47998;53.242;6.386;2023-05-14T07:18:44;16.10;99.90
51579;DHT22;47998;53.242;6.386;2023-05-14T07:21:10;16.20;99.90
51579;DHT22;47998;53.242;6.386;2023-05-14T07:23:36;16.30;99.90
51579;DHT22;47998;53.242;6.386;2023-05-14T07:26:03;16.40;87.90
51579;DHT22;47998;53.242;6.386;2023-05-14T07:28:29;16.60;1.00
51579;DHT22;47998;53.242;6.386;2023-05-14T07:30:55;16.70;1.00
51579;DHT22;47998;53.242;6.386;2023-05-14T07:33:21;16.90;1.00
51579;DHT22;47998;53.242;6.386;2023-05-14T07:35:47;17.20;1.00
51579;DHT22;47998;53.242;6.386;2023-05-14T07:38:13;17.70;99.90
51579;DHT22;47998;53.242;6.386;2023-05-14T07:40:38;17.90;99.90
51579;DHT22;47998;53.242;6.386;2023-05-14T07:43:04;17.80;99.90
51579;DHT22;47998;53.242;6.386;2023-05-14T07:45:30;17.80;99.90
51579;DHT22;47998;53.242;6.386;2023-05-14T07:47:55;18.20;99.90
51579;DHT22;47998;53.242;6.386;2023-05-14T07:50:21;18.30;99.90
51579;DHT22;47998;53.242;6.386;2023-05-14T07:52:47;18.40;71.70
51579;DHT22;47998;53.242;6.386;2023-05-14T07:55:13;18.20;99.90
51579;DHT22;47998;53.242;6.386;2023-05-14T07:57:39;18.10;99.90
51579;DHT22;47998;53.242;6.386;2023-05-14T08:00:05;17.50;99.90
51579;DHT22;47998;53.242;6.386;2023-05-14T08:02:34;17.50;99.90
51579;DHT22;47998;53.242;6.386;2023-05-14T08:05:00;17.70;99.90
51579;DHT22;47998;53.242;6.386;2023-05-14T08:07:26;17.90;99.90
51579;DHT22;47998;53.242;6.386;2023-05-14T08:09:53;18.00;57.80
51579;DHT22;47998;53.242;6.386;2023-05-14T08:12:19;17.90;1.00
51579;DHT22;47998;53.242;6.386;2023-05-14T08:14:45;17.80;1.00
51579;DHT22;47998;53.242;6.386;2023-05-14T08:17:11;17.50;1.00
51579;DHT22;47998;53.242;6.386;2023-05-14T08:19:36;17.40;25.90
51579;DHT22;47998;53.242;6.386;2023-05-14T08:22:02;17.50;79.50
51579;DHT22;47998;53.242;6.386;2023-05-14T08:24:28;17.70;1.00
51579;DHT22;47998;53.242;6.386;2023-05-14T08:26:54;17.70;7.60
51579;DHT22;47998;53.242;6.386;2023-05-14T08:29:20;18.00;1.00
51579;DHT22;47998;53.242;6.386;2023-05-14T08:31:47;18.20;1.00
51579;DHT22;47998;53.242;6.386;2023-05-14T08:34:12;18.10;99.90
51579;DHT22;47998;53.242;6.386;2023-05-14T08:36:38;18.10;1.00
51579;DHT22;47998;53.242;6.386;2023-05-14T08:39:05;18.10;1.00
51579;DHT22;47998;53.242;6.386;2023-05-14T08:41:34;18.00;99.90
51579;DHT22;47998;53.242;6.386;2023-05-14T08:44:14;18.50;99.90
51579;DHT22;47998;53.242;6.386;2023-05-14T08:46:43;18.70;69.30
51579;DHT22;47998;53.242;6.386;2023-05-14T08:51:59;19.10;1.00
51579;DHT22;47998;53.242;6.386;2023-05-14T08:54:25;19.70;1.00
51579;DHT22;47998;53.242;6.386;2023-05-14T08:56:51;20.20;99.90
51579;DHT22;47998;53.242;6.386;2023-05-14T08:59:18;20.60;99.90
51579;DHT22;47998;53.242;6.386;2023-05-14T09:01:46;20.40;99.90
51579;DHT22;47998;53.242;6.386;2023-05-14T09:04:15;20.40;99.90
51579;DHT22;47998;53.242;6.386;2023-05-14T09:06:45;19.50;99.90
51579;DHT22;47998;53.242;6.386;2023-05-14T09:09:13;19.40;99.90
51579;DHT22;47998;53.242;6.386;2023-05-14T09:11:45;18.90;1.00
51579;DHT22;47998;53.242;6.386;2023-05-14T09:14:10;19.20;1.00
51579;DHT22;47998;53.242;6.386;2023-05-14T09:16:37;19.40;99.90
51579;DHT22;47998;53.242;6.386;2023-05-14T09:19:05;19.60;99.90
51579;DHT22;47998;53.242;6.386;2023-05-14T09:21:32;19.80;99.90
51579;DHT22;47998;53.242;6.386;2023-05-14T09:23:58;20.30;99.90
51579;DHT22;47998;53.242;6.386;2023-05-14T09:26:25;20.80;1.00
51579;DHT22;47998;53.242;6.386;2023-05-14T09:28:56;21.20;1.00
51579;DHT22;47998;53.242;6.386;2023-05-14T09:31:22;21.50;99.90
51579;DHT22;47998;53.242;6.386;2023-05-14T09:33:51;21.90;99.90
51579;DHT22;47998;53.242;6.386;2023-05-14T09:36:18;22.10;1.00
51579;DHT22;47998;53.242;6.386;2023-05-14T09:38:44;21.80;1.00
51579;DHT22;47998;53.242;6.386;2023-05-14T09:41:10;21.30;1.00
51579;DHT22;47998;53.242;6.386;2023-05-14T09:43:36;21.50;99.90
51579;DHT22;47998;53.242;6.386;2023-05-14T09:46:02;22.20;1.00
51579;DHT22;47998;53.242;6.386;2023-05-14T09:48:28;22.50;99.90
51579;DHT22;47998;53.242;6.386;2023-05-14T09:50:54;22.90;99.90
51579;DHT22;47998;53.242;6.386;2023-05-14T09:53:20;22.70;99.90
51579;DHT22;47998;53.242;6.386;2023-05-14T09:55:46;22.40;99.90
51579;DHT22;47998;53.242;6.386;2023-05-14T09:58:12;22.30;1.00
51579;DHT22;47998;53.242;6.386;2023-05-14T10:00:44;22.90;99.90
51579;DHT22;47998;53.242;6.386;2023-05-14T10:03:13;23.00;99.90
51579;DHT22;47998;53.242;6.386;2023-05-14T10:08:12;23.20;68.10
51579;DHT22;47998;53.242;6.386;2023-05-14T10:10:39;22.70;73.40
51579;DHT22;47998;53.242;6.386;2023-05-14T10:13:13;22.90;1.00
51579;DHT22;47998;53.242;6.386;2023-05-14T10:15:42;22.60;1.00
51579;DHT22;47998;53.242;6.386;2023-05-14T10:18:11;22.60;99.90
51579;DHT22;47998;53.242;6.386;2023-05-14T10:20:37;22.90;91.80
51579;DHT22;47998;53.242;6.386;2023-05-14T10:23:05;23.20;1.00
51579;DHT22;47998;53.242;6.386;2023-05-14T10:25:33;23.50;1.00
51579;DHT22;47998;53.242;6.386;2023-05-14T10:27:59;23.50;99.90
51579;DHT22;47998;53.242;6.386;2023-05-14T10:30:26;23.80;99.90
51579;DHT22;47998;53.242;6.386;2023-05-14T10:33:15;24.00;99.90
51579;DHT22;47998;53.242;6.386;2023-05-14T10:36:04;24.30;99.90
51579;DHT22;47998;53.242;6.386;2023-05-14T10:38:34;24.00;99.90
51579;DHT22;47998;53.242;6.386;2023-05-14T10:41:10;24.70;99.90
51579;DHT22;47998;53.242;6.386;2023-05-14T10:43:37;24.80;99.90
51579;DHT22;47998;53.242;6.386;2023-05-14T10:46:03;25.00;99.90
51579;DHT22;47998;53.242;6.386;2023-05-14T10:48:29;24.80;35.80
51579;DHT22;47998;53.242;6.386;2023-05-14T10:50:57;24.80;30.10
51579;DHT22;47998;53.242;6.386;2023-05-14T10:53:42;24.50;94.40
51579;DHT22;47998;53.242;6.386;2023-05-14T10:56:12;24.40;6.70
51579;DHT22;47998;53.242;6.386;2023-05-14T10:58:39;24.50;1.00
51579;DHT22;47998;53.242;6.386;2023-05-14T11:01:07;24.60;1.00
51579;DHT22;47998;53.242;6.386;2023-05-14T11:03:42;24.70;1.00
51579;DHT22;47998;53.242;6.386;2023-05-14T11:06:10;24.90;1.00
51579;DHT22;47998;53.242;6.386;2023-05-14T11:08:37;25.00;1.00
51579;DHT22;47998;53.242;6.386;2023-05-14T11:11:04;25.50;1.00
51579;DHT22;47998;53.242;6.386;2023-05-14T11:13:30;25.40;1.00
51579;DHT22;47998;53.242;6.386;2023-05-14T11:15:56;25.80;99.90
51579;DHT22;47998;53.242;6.386;2023-05-14T11:18:31;25.80;99.90
51579;DHT22;47998;53.242;6.386;2023-05-14T11:21:01;26.10;99.90
51579;DHT22;47998;53.242;6.386;2023-05-14T11:23:27;26.10;99.90
51579;DHT22;47998;53.242;6.386;2023-05-14T11:28:24;26.40;99.90
51579;DHT22;47998;53.242;6.386;2023-05-14T11:30:52;26.40;99.90
51579;DHT22;47998;53.242;6.386;2023-05-14T11:33:19;26.70;99.90
51579;DHT22;47998;53.242;6.386;2023-05-14T11:35:45;26.70;99.90
51579;DHT22;47998;53.242;6.386;2023-05-14T11:38:18;27.10;99.90
51579;DHT22;47998;53.242;6.386;2023-05-14T11:40:52;27.30;99.90
51579;DHT22;47998;53.242;6.386;2023-05-14T11:43:18;27.80;99.90
51579;DHT22;47998;53.242;6.386;2023-05-14T11:45:49;27.30;99.90
51579;DHT22;47998;53.242;6.386;2023-05-14T11:48:15;27.30;99.90
51579;DHT22;47998;53.242;6.386;2023-05-14T11:50:49;27.60;99.90
51579;DHT22;47998;53.242;6.386;2023-05-14T11:53:21;27.40;99.90
51579;DHT22;47998;53.242;6.386;2023-05-14T11:55:49;27.60;99.90
51579;DHT22;47998;53.242;6.386;2023-05-14T11:58:14;27.90;99.90
51579;DHT22;47998;53.242;6.386;2023-05-14T12:00:44;27.90;99.90
51579;DHT22;47998;53.242;6.386;2023-05-14T12:03:10;27.50;99.90
51579;DHT22;47998;53.242;6.386;2023-05-14T12:05:39;27.00;99.90
51579;DHT22;47998;53.242;6.386;2023-05-14T12:08:21;27.60;99.90
51579;DHT22;47998;53.242;6.386;2023-05-14T12:10:46;27.10;99.90
51579;DHT22;47998;53.242;6.386;2023-05-14T12:13:14;26.50;99.90
51579;DHT22;47998;53.242;6.386;2023-05-14T12:15:44;25.70;99.90
51579;DHT22;47998;53.242;6.386;2023-05-14T12:18:09;25.30;99.90
51579;DHT22;47998;53.242;6.386;2023-05-14T12:20:35;25.20;99.90
51579;DHT22;47998;53.242;6.386;2023-05-14T12:23:01;25.10;99.90
51579;DHT22;47998;53.242;6.386;2023-05-14T12:25:28;25.30;99.90
51579;DHT22;47998;53.242;6.386;2023-05-14T12:27:53;25.20;99.90
51579;DHT22;47998;53.242;6.386;2023-05-14T12:30:19;25.30;99.90
51579;DHT22;47998;53.242;6.386;2023-05-14T12:32:45;25.40;99.90
51579;DHT22;47998;53.242;6.386;2023-05-14T12:35:11;25.40;99.90
51579;DHT22;47998;53.242;6.386;2023-05-14T12:37:36;25.50;99.90
51579;DHT22;47998;53.242;6.386;2023-05-14T12:40:04;25.50;99.90
51579;DHT22;47998;53.242;6.386;2023-05-14T12:42:36;25.10;99.90
51579;DHT22;47998;53.242;6.386;2023-05-14T12:45:02;25.10;99.90
51579;DHT22;47998;53.242;6.386;2023-05-14T12:47:31;25.10;99.90
51579;DHT22;47998;53.242;6.386;2023-05-14T12:49:57;25.40;99.90
51579;DHT22;47998;53.242;6.386;2023-05-14T12:52:23;25.80;99.90
51579;DHT22;47998;53.242;6.386;2023-05-14T12:54:49;26.20;99.90
51579;DHT22;47998;53.242;6.386;2023-05-14T12:57:15;26.30;99.90
51579;DHT22;47998;53.242;6.386;2023-05-14T12:59:40;26.40;99.90
51579;DHT22;47998;53.242;6.386;2023-05-14T13:02:06;26.20;99.90
51579;DHT22;47998;53.242;6.386;2023-05-14T13:04:32;26.40;99.90
51579;DHT22;47998;53.242;6.386;2023-05-14T13:06:58;26.50;99.90
51579;DHT22;47998;53.242;6.386;2023-05-14T13:09:24;26.40;99.90
51579;DHT22;47998;53.242;6.386;2023-05-14T13:11:52;26.30;99.90
51579;DHT22;47998;53.242;6.386;2023-05-14T13:14:18;26.30;99.90
51579;DHT22;47998;53.242;6.386;2023-05-14T13:16:44;26.30;99.90
51579;DHT22;47998;53.242;6.386;2023-05-14T13:19:09;25.80;1.00
51579;DHT22;47998;53.242;6.386;2023-05-14T13:21:35;25.40;1.00
51579;DHT22;47998;53.242;6.386;2023-05-14T13:24:01;25.20;1.00
51579;DHT22;47998;53.242;6.386;2023-05-14T13:26:26;25.10;1.00
51579;DHT22;47998;53.242;6.386;2023-05-14T13:28:52;25.10;1.00
51579;DHT22;47998;53.242;6.386;2023-05-14T13:31:18;25.00;1.00
51579;DHT22;47998;53.242;6.386;2023-05-14T13:33:44;24.80;1.00
51579;DHT22;47998;53.242;6.386;2023-05-14T13:36:12;24.60;99.90
51579;DHT22;47998;53.242;6.386;2023-05-14T13:38:38;24.70;99.90
51579;DHT22;47998;53.242;6.386;2023-05-14T13:41:04;24.50;99.90
51579;DHT22;47998;53.242;6.386;2023-05-14T13:43:31;24.30;99.90
51579;DHT22;47998;53.242;6.386;2023-05-14T13:45:57;24.20;1.00
51579;DHT22;47998;53.242;6.386;2023-05-14T13:48:24;24.40;1.00
51579;DHT22;47998;53.242;6.386;2023-05-14T13:50:50;24.50;1.00
51579;DHT22;47998;53.242;6.386;2023-05-14T13:53:20;24.50;99.90
51579;DHT22;47998;53.242;6.386;2023-05-14T13:55:47;24.40;1.00
51579;DHT22;47998;53.242;6.386;2023-05-14T13:58:13;24.60;99.90
51579;DHT22;47998;53.242;6.386;2023-05-14T14:00:39;24.20;1.00
51579;DHT22;47998;53.242;6.386;2023-05-14T14:03:06;24.20;1.00
51579;DHT22;47998;53.242;6.386;2023-05-14T14:05:33;24.00;25.30
51579;DHT22;47998;53.242;6.386;2023-05-14T14:07:59;24.00;1.00
51579;DHT22;47998;53.242;6.386;2023-05-14T14:10:25;23.90;1.00
51579;DHT22;47998;53.242;6.386;2023-05-14T14:12:51;23.40;1.00
51579;DHT22;47998;53.242;6.386;2023-05-14T14:15:16;23.40;99.90
51579;DHT22;47998;53.242;6.386;2023-05-14T14:17:42;23.10;99.90
51579;DHT22;47998;53.242;6.386;2023-05-14T14:20:08;23.20;99.90
51579;DHT22;47998;53.242;6.386;2023-05-14T14:22:34;23.20;99.90
51579;DHT22;47998;53.242;6.386;2023-05-14T14:25:01;22.80;99.90
51579;DHT22;47998;53.242;6.386;2023-05-14T14:27:26;22.90;99.90
51579;DHT22;47998;53.242;6.386;2023-05-14T14:29:52;23.00;99.90
51579;DHT22;47998;53.242;6.386;2023-05-14T14:32:18;23.00;99.90
51579;DHT22;47998;53.242;6.386;2023-05-14T14:34:44;23.00;99.90
51579;DHT22;47998;53.242;6.386;2023-05-14T14:37:10;22.90;99.90
51579;DHT22;47998;53.242;6.386;2023-05-14T14:39:36;22.70;99.90
51579;DHT22;47998;53.242;6.386;2023-05-14T14:42:02;22.80;99.90
51579;DHT22;47998;53.242;6.386;2023-05-14T14:44:28;22.90;99.90
51579;DHT22;47998;53.242;6.386;2023-05-14T14:46:53;22.80;99.90
51579;DHT22;47998;53.242;6.386;2023-05-14T14:49:19;22.60;1.00
51579;DHT22;47998;53.242;6.386;2023-05-14T14:51:45;22.70;99.90
51579;DHT22;47998;53.242;6.386;2023-05-14T14:54:11;22.50;1.00
51579;DHT22;47998;53.242;6.386;2023-05-14T14:56:37;22.10;1.00
51579;DHT22;47998;53.242;6.386;2023-05-14T14:59:03;22.00;1.00
51579;DHT22;47998;53.242;6.386;2023-05-14T15:01:29;22.10;1.00
51579;DHT22;47998;53.242;6.386;2023-05-14T15:03:54;21.90;4.70
51579;DHT22;47998;53.242;6.386;2023-05-14T15:06:20;21.90;75.50
51579;DHT22;47998;53.242;6.386;2023-05-14T15:08:46;21.80;10.40
51579;DHT22;47998;53.242;6.386;2023-05-14T15:11:12;21.90;1.00
51579;DHT22;47998;53.242;6.386;2023-05-14T15:13:38;21.70;1.00
51579;DHT22;47998;53.242;6.386;2023-05-14T15:16:06;21.90;1.00
51579;DHT22;47998;53.242;6.386;2023-05-14T15:18:32;22.10;1.00
51579;DHT22;47998;53.242;6.386;2023-05-14T15:20:57;22.00;1.00
51579;DHT22;47998;53.242;6.386;2023-05-14T15:23:23;21.90;99.90
51579;DHT22;47998;53.242;6.386;2023-05-14T15:25:49;21.80;1.00
51579;DHT22;47998;53.242;6.386;2023-05-14T15:28:14;21.70;1.00
51579;DHT22;47998;53.242;6.386;2023-05-14T15:30:40;21.20;99.90
51579;DHT22;47998;53.242;6.386;2023-05-14T15:33:06;21.50;88.40
51579;DHT22;47998;53.242;6.386;2023-05-14T15:35:33;21.60;1.00
51579;DHT22;47998;53.242;6.386;2023-05-14T15:37:58;21.20;16.80
51579;DHT22;47998;53.242;6.386;2023-05-14T15:40:25;20.70;85.40
51579;DHT22;47998;53.242;6.386;2023-05-14T15:42:51;20.90;99.90
51579;DHT22;47998;53.242;6.386;2023-05-14T15:45:17;20.80;99.90